Homestead, FL

9:33 PM EDT on April 18, 2015 (GMT -0400)
Dade County-Homestead Regional | | Change Station
CLOSE
Current Station
Airport
Location: Homestead AFB,
Elevation: 7 ft
Nearby Weather Stations

Elev 7 ft 25.49 °N, 80.38 °W | Updated 35 minutes ago

Clear
Clear
77 °F
Feels Like 77 °F
N
4
Wind Variable Wind from SSE

Today
High -- | Low -- °F
--% Chance of Precip.
Yesterday
High -- | Low -- °F
Precip. -- in
6:56 AM 7:45 PM
New Moon, 0% visible
Pressure 29.97 in
Visibility 10.0 miles
Clouds Clear
Dew Point 70 °F
Humidity 79%
Rainfall 0.00 in
Snow Depth Not available.
UV 0 out of 12
Pollen 5.80 out of 12
Air Quality Not available.
Flu Activity Local Activity
METAR KHST 190058Z AUTO 16003KT 10SM CLR 25/21 A2996 RMK AO2 SLP149 T02510212

More Conditions Fewer Conditions

Pressure 29.97 in
Visibility 10.0 miles
Clouds Clear
Dew Point 70 °F
Humidity 79%
Rainfall 0.00 in
Snow Depth Not available.
UV 0 out of 12
Pollen 5.80 out of 12
Air Quality Not available.
Flu Activity Local Activity
METAR KHST 190058Z AUTO 16003KT 10SM CLR 25/21 A2996 RMK AO2 SLP149 T02510212

More Conditions Fewer Conditions

Nowcast | as of 9:33 PM EDT on April 18, 2015

A few showers and thunderstorms will continue to be possible through the early evening as they move south at 5 mph. The strongest storms will produce an occasional lightning strike and brief very heavy rainfall. The area that will have the greatest chance of this activity through 10 PM will be northeast Broward and extreme northern Palm Beach counties. Most of the showers will then diminish by midnight but a few could remain active over the near shore Atlantic waters.

×

10-Day Weather Forecast

Almanac

Astronomy

Apr. 18, 2015 Rise Set
Actual Time
Civil Twilight
Nautical Twilight
Astronomical Twilight
Moon
Length of Visible Light
Length of Day
Tomorrow will be .
, % of the Moon is Illuminated

Today's Extremes

State Highs State Lows

Community

WunderPhotos

Upload Photos

1,814,626 photos uploaded!

WunderBlogs® & News

Nearby

Air Quality

  Air Quality AQ Index Pollutant
Not available.

Snow Depth

Station Depth Elevation

Earthquake Activity

City Distance Mag. Time & Date
Minimum magnitude displayed is 2.5.

Coastal Water Temperatures

Place Temperature

Stations

Nearby Weather Stations

Station Location Temp. Windchill Dew Point Humidity Wind Precip. Elev Updated Type